Time;durP1;ratioP1;P1;durP2;ratioP2;P2;SDS_P1;SDS_P2;PMS_P1;PMS_P2;Temp;Humidity;BMP_temperature;BMP_pressure;BME280_temperature;BME280_humidity;BME280_pressure;Samples;Min_cycle;Max_cycle;Signal;HPM_P1;HPM_P2
2024/02/23 00:01:08;;;;;;;28.15;11.68;;;;;;;-1.73;83.31;100275.47;5068309;28;20036;-74
2024/02/23 00:03:48;;;;;;;24.98;11.20;;;;;;;-1.61;83.90;100273.47;5067263;28;20262;-71
2024/02/23 00:06:14;;;;;;;23.23;11.32;;;;;;;-1.57;83.98;100275.38;5066951;28;20036;-71
2024/02/23 00:08:45;;;;;;;29.70;12.23;;;;;;;-1.53;83.96;100263.63;5052636;28;20037;-73
2024/02/23 00:11:12;;;;;;;25.38;10.70;;;;;;;-1.30;84.21;100310.69;5054285;28;20047;-71
2024/02/23 00:13:38;;;;;;;25.63;11.50;;;;;;;-1.39;83.79;100297.47;5065183;28;20044;-70
2024/02/23 00:16:04;;;;;;;25.70;10.95;;;;;;;-1.38;84.17;100294.13;5065592;28;20678;-71
2024/02/23 00:18:31;;;;;;;24.75;10.73;;;;;;;-1.38;84.04;100287.34;5054352;28;20087;-72
2024/02/23 00:21:00;;;;;;;25.35;10.35;;;;;;;-1.62;83.68;100265.75;5053456;28;20107;-70
2024/02/23 00:23:40;;;;;;;22.33;9.70;;;;;;;-1.42;84.02;100289.66;5051698;28;20042;-70
2024/02/23 00:26:07;;;;;;;18.50;8.93;;;;;;;-1.81;83.63;100231.72;5081794;28;20058;-70
2024/02/23 00:28:36;;;;;;;26.08;11.07;;;;;;;-1.65;82.98;100275.81;5061969;28;20032;-71
2024/02/23 00:31:02;;;;;;;25.35;11.35;;;;;;;-1.76;83.91;100255.75;5066026;28;20044;-72
2024/02/23 00:33:29;;;;;;;22.90;9.98;;;;;;;-1.58;84.26;100265.13;5080116;28;20071;-73
2024/02/23 00:35:55;;;;;;;26.63;10.82;;;;;;;-1.41;84.12;100294.88;5063935;28;20043;-70
2024/02/23 00:38:23;;;;;;;28.13;11.63;;;;;;;-1.55;83.19;100281.44;5063437;28;20505;-70
2024/02/23 00:40:49;;;;;;;26.02;9.95;;;;;;;-1.41;84.46;100296.53;5048963;28;20033;-69
2024/02/23 00:43:15;;;;;;;26.80;11.15;;;;;;;-1.55;83.45;100272.91;5082482;28;20513;-70
2024/02/23 00:45:41;;;;;;;23.70;10.18;;;;;;;-1.55;83.67;100283.13;5049917;28;20045;-69
2024/02/23 00:48:07;;;;;;;24.50;10.68;;;;;;;-1.60;83.54;100280.34;5069391;28;20044;-70
2024/02/23 00:50:34;;;;;;;22.00;10.30;;;;;;;-1.37;84.56;100303.53;5066727;28;20040;-70
2024/02/23 00:53:00;;;;;;;22.60;10.60;;;;;;;-1.58;84.42;100254.91;5068752;28;20499;-70
2024/02/23 00:55:26;;;;;;;27.52;11.73;;;;;;;-1.32;83.96;100291.00;5081216;28;20135;-69
2024/02/23 00:57:52;;;;;;;21.60;10.05;;;;;;;-1.33;84.13;100279.91;5053457;28;20175;-69
2024/02/23 01:00:18;;;;;;;21.48;9.90;;;;;;;-1.39;83.95;100289.81;5062984;28;20044;-72
2024/02/23 01:02:44;;;;;;;23.15;10.77;;;;;;;-1.52;83.81;100258.63;5060889;28;20040;-70
2024/02/23 01:05:14;;;;;;;26.50;11.00;;;;;;;-1.46;84.19;100265.69;5053956;28;20033;-70
2024/02/23 01:07:40;;;;;;;24.15;10.70;;;;;;;-1.18;84.51;100294.19;5078821;28;20421;-71
2024/02/23 01:10:06;;;;;;;28.45;11.35;;;;;;;-1.46;84.02;100252.06;5065566;28;20102;-72
2024/02/23 01:12:35;;;;;;;22.60;9.65;;;;;;;-1.42;84.34;100256.47;5064363;28;20091;-71
2024/02/23 01:15:03;;;;;;;23.95;10.50;;;;;;;-1.23;84.63;100289.75;5065657;28;20041;-71
2024/02/23 01:17:30;;;;;;;25.10;11.45;;;;;;;-1.93;83.25;100193.72;5069318;28;20063;-71
2024/02/23 01:19:56;;;;;;;24.70;10.20;;;;;;;-1.43;83.73;100263.28;5070504;28;20044;-72
2024/02/23 01:22:25;;;;;;;26.52;10.57;;;;;;;-1.31;83.43;100303.84;5085222;28;20037;-71
2024/02/23 01:24:55;;;;;;;25.80;9.70;;;;;;;-1.71;84.34;100245.78;5057111;28;20427;-70
2024/02/23 01:27:26;;;;;;;27.15;11.10;;;;;;;-1.25;84.05;100288.81;5069744;28;21378;-71
2024/02/23 01:29:58;;;;;;;23.80;10.48;;;;;;;-1.59;84.13;100242.94;5068643;28;20040;-72
2024/02/23 01:32:24;;;;;;;22.83;10.45;;;;;;;-1.36;84.33;100295.06;5069234;28;20099;-70
2024/02/23 01:34:50;;;;;;;27.67;11.55;;;;;;;-1.34;84.00;100298.56;5070834;28;20040;-70
2024/02/23 01:37:17;;;;;;;22.80;10.63;;;;;;;-1.44;83.78;100291.31;5069878;28;20046;-71
2024/02/23 01:39:43;;;;;;;27.15;11.45;;;;;;;-1.32;84.49;100286.75;5051398;28;20041;-68
2024/02/23 01:42:09;;;;;;;22.25;10.80;;;;;;;-1.25;84.25;100300.69;5069456;28;20064;-67
2024/02/23 01:44:35;;;;;;;25.55;10.73;;;;;;;-1.08;84.12;100306.59;5065708;28;20082;-67
2024/02/23 01:47:01;;;;;;;23.73;11.10;;;;;;;-1.06;84.49;100292.22;5069151;28;20040;-67
2024/02/23 01:49:32;;;;;;;24.63;10.82;;;;;;;-1.11;83.82;100299.66;5065442;28;20040;-69
2024/02/23 01:51:58;;;;;;;25.37;10.90;;;;;;;-1.40;82.98;100276.19;5069567;28;20059;-67
2024/02/23 01:54:25;;;;;;;28.30;11.27;;;;;;;-1.50;83.94;100258.69;5069379;28;20079;-68
2024/02/23 01:56:51;;;;;;;27.17;11.70;;;;;;;-1.25;84.02;100305.78;5070395;28;20047;-68
2024/02/23 01:59:21;;;;;;;26.02;10.40;;;;;;;-1.55;83.41;100263.56;5052311;28;20039;-68
2024/02/23 02:01:47;;;;;;;26.52;11.18;;;;;;;-1.30;84.54;100294.47;5067747;28;20040;-68
2024/02/23 02:04:13;;;;;;;24.55;11.40;;;;;;;-1.63;84.59;100231.69;5056786;28;20044;-67
2024/02/23 02:06:39;;;;;;;22.20;9.95;;;;;;;-1.29;84.30;100279.25;5062150;28;20070;-68
2024/02/23 02:09:06;;;;;;;26.35;10.90;;;;;;;-1.52;84.15;100238.19;5065038;28;20040;-67
2024/02/23 02:11:32;;;;;;;25.15;10.82;;;;;;;-1.25;84.00;100288.81;5070077;28;20050;-68
2024/02/23 02:14:00;;;;;;;28.08;10.50;;;;;;;-1.10;84.09;100311.59;5056245;28;20071;-68
2024/02/23 02:16:27;;;;;;;29.48;11.75;;;;;;;-1.14;85.09;100273.09;5069173;28;20059;-68
2024/02/23 02:18:53;;;;;;;26.60;10.68;;;;;;;-0.84;85.09;100311.94;5054700;28;20364;-67
2024/02/23 02:21:23;;;;;;;27.42;10.88;;;;;;;-1.03;84.40;100274.47;5061857;28;20041;-69
2024/02/23 02:23:49;;;;;;;26.77;10.75;;;;;;;-0.90;84.31;100319.34;5051949;28;20040;-69
2024/02/23 02:26:15;;;;;;;25.92;9.98;;;;;;;-1.03;84.38;100300.03;5083354;28;20032;-69
2024/02/23 02:28:42;;;;;;;26.70;11.35;;;;;;;-1.44;83.89;100236.00;5085380;28;20040;-69
2024/02/23 02:31:08;;;;;;;30.65;11.05;;;;;;;-1.22;84.24;100296.63;5053445;28;20094;-68
2024/02/23 02:33:34;;;;;;;24.40;10.20;;;;;;;-1.05;84.59;100311.84;5083751;28;20036;-69
2024/02/23 02:36:04;;;;;;;23.33;10.45;;;;;;;-1.17;84.10;100295.94;5054143;28;20044;-69
2024/02/23 02:38:33;;;;;;;28.98;11.25;;;;;;;-1.02;84.47;100304.31;5070921;28;20029;-69
2024/02/23 02:41:00;;;;;;;27.08;10.40;;;;;;;-1.04;84.44;100298.28;5071838;28;20051;-68
2024/02/23 02:43:29;;;;;;;27.02;11.55;;;;;;;-1.16;84.35;100277.25;5082992;28;20492;-67
2024/02/23 02:45:58;;;;;;;28.13;10.82;;;;;;;-1.15;84.13;100279.91;5084643;28;20139;-68
2024/02/23 02:48:27;;;;;;;;;;;;;;;-0.89;84.63;100317.66;5072616;28;20040;-67
2024/02/23 02:50:55;;;;;;;26.95;9.90;;;;;;;-0.88;84.63;100314.28;5065993;28;20049;-67
2024/02/23 02:53:22;;;;;;;19.10;8.70;;;;;;;-0.85;84.20;100319.53;5066217;28;20286;-69
2024/02/23 02:55:48;;;;;;;27.10;11.18;;;;;;;-1.06;84.42;100298.19;5080587;28;20037;-69
2024/02/23 02:58:14;;;;;;;29.52;10.23;;;;;;;-0.85;84.36;100322.09;5067199;28;20610;-68
2024/02/23 03:00:40;;;;;;;23.38;10.35;;;;;;;-0.92;83.87;100326.91;5071364;28;20104;-67
2024/02/23 03:03:07;;;;;;;26.75;10.77;;;;;;;-0.84;84.19;100323.84;5064864;28;20029;-69
2024/02/23 03:05:35;;;;;;;26.27;11.23;;;;;;;-0.94;84.24;100317.44;5071815;28;20047;-69
2024/02/23 03:08:01;;;;;;;22.95;10.63;;;;;;;-0.86;84.53;100320.34;5071868;28;20121;-68
2024/02/23 03:10:27;;;;;;;23.52;10.73;;;;;;;-0.84;84.28;100318.75;5081897;28;20078;-67
2024/02/23 03:12:53;;;;;;;25.42;10.63;;;;;;;-0.93;84.13;100303.88;5069156;28;20414;-68
2024/02/23 03:15:19;;;;;;;24.67;10.15;;;;;;;-1.11;83.42;100301.34;5066739;28;20044;-69
2024/02/23 03:17:45;;;;;;;26.67;11.10;;;;;;;-0.96;83.95;100342.91;5036478;28;20040;-69
2024/02/23 03:20:12;;;;;;;26.52;10.65;;;;;;;-1.14;84.01;100312.28;5065966;28;20494;-70
2024/02/23 03:22:38;;;;;;;26.52;11.35;;;;;;;-1.24;84.22;100293.13;5085083;28;20553;-68
2024/02/23 03:25:08;;;;;;;24.33;10.18;;;;;;;-0.95;83.82;100334.44;5065189;28;20518;-68
2024/02/23 03:27:36;;;;;;;26.65;11.13;;;;;;;-1.08;83.74;100334.69;5054070;28;20528;-68
2024/02/23 03:30:04;;;;;;;29.23;11.02;;;;;;;-1.12;84.48;100325.13;5072278;28;20479;-70
2024/02/23 03:32:36;;;;;;;24.92;10.63;;;;;;;-0.93;84.20;100352.41;5062548;28;20503;-68
2024/02/23 03:35:06;;;;;;;23.70;9.18;;;;;;;-1.09;84.36;100344.00;5063573;28;20044;-70
2024/02/23 03:37:32;;;;;;;25.55;10.45;;;;;;;-1.12;83.86;100325.13;5066622;28;20033;-68
2024/02/23 03:39:59;;;;;;;25.05;10.35;;;;;;;-1.32;83.95;100307.19;5055224;28;20045;-69
2024/02/23 03:42:26;;;;;;;25.27;9.75;;;;;;;-1.01;83.98;100346.97;5068263;28;20039;-69
2024/02/23 03:44:53;;;;;;;25.23;10.73;;;;;;;-1.01;84.69;100334.19;5066372;28;20101;-69
2024/02/23 03:47:19;;;;;;;26.55;10.40;;;;;;;-0.89;84.33;100343.22;5065651;28;20518;-69
2024/02/23 03:49:45;;;;;;;24.95;9.82;;;;;;;-0.83;83.91;100357.13;5054393;28;20040;-68
2024/02/23 03:52:11;;;;;;;27.10;11.10;;;;;;;-1.06;84.24;100320.31;5053911;28;20055;-69
2024/02/23 03:54:37;;;;;;;23.60;9.82;;;;;;;-0.94;84.19;100335.34;5064339;28;20040;-68
2024/02/23 03:57:10;;;;;;;26.90;11.18;;;;;;;-1.10;85.02;100282.66;5083469;28;20032;-70
2024/02/23 03:59:52;;;;;;;23.38;10.38;;;;;;;-0.69;84.41;100349.25;5050109;28;20032;-67
2024/02/23 04:02:18;;;;;;;31.73;11.05;;;;;;;-1.17;84.01;100271.28;5053132;28;20482;-69
2024/02/23 04:04:44;;;;;;;25.35;10.43;;;;;;;-0.63;84.87;100339.28;5063452;28;20082;-67
2024/02/23 04:07:10;;;;;;;29.50;10.18;;;;;;;-0.61;85.03;100346.22;5064044;28;20131;-69
2024/02/23 04:09:36;;;;;;;23.33;10.00;;;;;;;-0.86;83.73;100334.00;5056054;28;20031;-69
2024/02/23 04:12:03;;;;;;;23.77;10.32;;;;;;;-1.15;84.29;100317.31;5067320;28;20117;-70
2024/02/23 04:14:33;;;;;;;23.33;10.68;;;;;;;-1.12;84.42;100330.22;5065228;28;20036;-69
2024/02/23 04:16:59;;;;;;;22.83;10.68;;;;;;;-1.01;84.13;100343.50;5064702;28;20040;-71
2024/02/23 04:19:25;;;;;;;24.77;9.70;;;;;;;-0.85;84.72;100350.22;5079333;28;20063;-69
2024/02/23 04:21:51;;;;;;;26.40;10.85;;;;;;;-1.32;83.91;100278.25;5052902;28;20040;-68
2024/02/23 04:24:17;;;;;;;28.02;10.75;;;;;;;-0.96;84.36;100324.16;5064312;28;20126;-68
2024/02/23 04:26:43;;;;;;;24.67;10.65;;;;;;;-0.91;84.84;100325.25;5070328;28;20047;-68
2024/02/23 04:29:15;;;;;;;28.48;9.95;;;;;;;-0.92;83.99;100336.28;5054856;28;20040;-68
2024/02/23 04:31:41;;;;;;;27.83;9.63;;;;;;;-0.87;84.61;100332.22;5066974;28;20514;-70
2024/02/23 04:34:07;;;;;;;27.42;10.13;;;;;;;-0.87;83.63;100346.72;5054215;28;20036;-68
2024/02/23 04:36:36;;;;;;;25.83;11.05;;;;;;;-0.88;84.59;100356.03;5083034;28;20122;-68
2024/02/23 04:39:02;;;;;;;27.95;11.18;;;;;;;-1.13;84.01;100303.81;5069505;28;20044;-69
2024/02/23 04:41:28;;;;;;;28.27;11.95;;;;;;;-1.12;83.81;100312.34;5068462;28;20459;-70
2024/02/23 04:43:59;;;;;;;26.90;11.10;;;;;;;-1.03;84.14;100333.22;5062139;28;20048;-68
2024/02/23 04:46:26;;;;;;;24.23;10.90;;;;;;;-0.91;84.46;100344.00;5034106;28;20033;-69
2024/02/23 04:48:53;;;;;;;26.58;10.65;;;;;;;-1.21;84.26;100294.91;5075235;28;20309;-68
2024/02/23 04:51:19;;;;;;;23.85;10.38;;;;;;;-1.05;83.54;100342.50;5071663;28;20055;-68
2024/02/23 04:53:46;;;;;;;24.08;11.05;;;;;;;-0.94;84.42;100356.63;5071120;28;20062;-69
2024/02/23 04:56:12;;;;;;;23.15;9.38;;;;;;;-0.89;83.88;100353.44;5081666;28;20096;-69
2024/02/23 04:58:41;;;;;;;25.23;9.90;;;;;;;-0.82;84.56;100361.44;5065530;28;20067;-69
2024/02/23 05:01:07;;;;;;;24.67;10.52;;;;;;;-0.77;84.60;100359.97;5057498;28;20102;-69
2024/02/23 05:03:34;;;;;;;23.17;9.68;;;;;;;-0.89;83.91;100350.88;5069820;28;20040;-68
2024/02/23 05:06:00;;;;;;;26.98;10.77;;;;;;;-0.94;84.69;100348.97;5065386;28;20522;-69
2024/02/23 05:08:27;;;;;;;23.83;10.20;;;;;;;-0.85;83.67;100381.75;5058194;28;20133;-69
2024/02/23 05:10:53;;;;;;;30.25;11.48;;;;;;;-0.91;84.40;100356.78;5066122;28;20068;-68
2024/02/23 05:13:23;;;;;;;27.17;9.38;;;;;;;-0.89;83.88;100374.75;5068837;28;20053;-68
2024/02/23 05:15:49;;;;;;;23.55;10.30;;;;;;;-1.28;83.90;100336.28;5051832;28;20041;-67
2024/02/23 05:18:15;;;;;;;24.33;10.00;;;;;;;-1.10;84.61;100355.03;5073208;28;20097;-68
2024/02/23 05:20:41;;;;;;;30.45;11.88;;;;;;;-1.06;84.44;100350.97;5075656;28;20040;-69
2024/02/23 05:23:07;;;;;;;26.48;10.85;;;;;;;-0.91;84.72;100361.91;5062363;28;20048;-67
2024/02/23 05:25:34;;;;;;;24.90;10.75;;;;;;;-0.83;84.07;100382.69;5054772;28;20047;-68
2024/02/23 05:28:03;;;;;;;24.92;10.68;;;;;;;-0.89;84.31;100361.09;5068025;28;20040;-68
2024/02/23 05:30:31;;;;;;;30.38;12.63;;;;;;;-0.81;84.24;100386.19;5069177;28;20040;-68
2024/02/23 05:32:58;;;;;;;24.67;11.35;;;;;;;-0.85;84.59;100355.31;5067838;28;20056;-67
2024/02/23 05:35:26;;;;;;;20.58;9.02;;;;;;;-0.91;83.57;100361.91;5073273;28;20036;-66
2024/02/23 05:37:55;;;;;;;23.10;11.80;;;;;;;-0.80;84.87;100356.41;5039187;28;20044;-66
2024/02/23 05:40:21;;;;;;;24.48;10.80;;;;;;;-0.55;85.01;100375.44;5040037;28;20048;-66
2024/02/23 05:42:47;;;;;;;27.23;11.65;;;;;;;-0.39;84.94;100387.22;5069305;28;20040;-66
2024/02/23 05:45:13;;;;;;;28.95;11.43;;;;;;;-0.42;84.67;100397.28;5067483;28;20040;-67
2024/02/23 05:47:40;;;;;;;24.17;10.65;;;;;;;-0.47;84.63;100389.41;5086250;28;20039;-71
2024/02/23 05:50:11;;;;;;;27.33;10.93;;;;;;;-0.53;84.51;100394.25;5067178;28;20037;-69
2024/02/23 05:52:39;;;;;;;28.20;11.13;;;;;;;-0.58;84.74;100385.53;5086015;28;20082;-69
2024/02/23 05:55:05;;;;;;;25.98;11.63;;;;;;;-0.43;84.71;100405.78;5067064;28;20069;-68
2024/02/23 05:57:33;;;;;;;24.27;10.75;;;;;;;-0.53;84.16;100382.34;5067278;28;20478;-71
2024/02/23 06:00:01;;;;;;;22.95;10.40;;;;;;;-0.70;84.80;100350.91;5030331;28;20389;-69
2024/02/23 06:02:40;;;;;;;21.60;10.50;;;;;;;-0.33;84.47;100393.47;5067966;28;20036;-70
2024/02/23 06:08:49;;;;;;;25.02;11.77;;;;;;;-0.49;84.29;100399.59;5016255;28;20044;-72
2024/02/23 06:11:56;;;;;;;27.20;9.68;;;;;;;-0.50;84.15;100415.75;5022780;28;20637;-77
2024/02/23 06:14:28;;;;;;;26.38;10.98;;;;;;;-0.65;83.78;100389.44;4982801;28;20046;-71
2024/02/23 06:16:54;;;;;;;26.42;11.52;;;;;;;-0.68;84.21;100359.53;5013923;28;20164;-74
2024/02/23 06:19:20;;;;;;;28.05;11.85;;;;;;;-0.84;83.82;100352.81;5032103;28;20135;-72
2024/02/23 06:21:50;;;;;;;22.65;10.55;;;;;;;-0.46;84.28;100402.31;5054665;28;20036;-72
2024/02/23 06:24:29;;;;;;;24.38;10.70;;;;;;;-0.45;84.63;100387.81;5087009;28;20047;-72
2024/02/23 06:26:57;;;;;;;22.75;9.80;;;;;;;-0.46;84.65;100360.50;5063582;28;20036;-71
2024/02/23 06:29:27;;;;;;;24.50;10.82;;;;;;;-0.15;85.23;100395.13;5064996;28;20039;-80
2024/02/23 06:31:55;;;;;;;25.15;10.55;;;;;;;-0.38;84.76;100373.63;5058973;28;20037;-75
2024/02/23 06:34:24;;;;;;;22.27;10.32;;;;;;;-0.18;84.27;100410.31;5063368;28;20726;-73
2024/02/23 06:36:50;;;;;;;26.13;11.48;;;;;;;-0.32;83.78;100402.03;5065361;28;20044;-71
2024/02/23 06:39:30;;;;;;;22.92;10.48;;;;;;;-0.23;84.60;100422.03;5049616;28;20135;-76
2024/02/23 06:41:57;;;;;;;23.48;10.48;;;;;;;-0.59;83.96;100373.53;5045020;28;21716;-73
2024/02/23 06:44:29;;;;;;;21.67;9.63;;;;;;;-0.29;84.44;100394.50;5050521;28;20056;-72
2024/02/23 06:46:59;;;;;;;23.55;10.63;;;;;;;-0.64;84.02;100348.63;5068788;28;20144;-67
2024/02/23 06:49:25;;;;;;;22.27;9.63;;;;;;;-0.13;84.34;100437.00;5072234;28;20037;-70
2024/02/23 06:51:51;;;;;;;26.20;10.73;;;;;;;-0.11;84.49;100425.13;5074702;28;20821;-70
2024/02/23 06:54:17;;;;;;;24.05;10.45;;;;;;;-0.27;83.64;100422.69;5061240;28;20102;-71
2024/02/23 06:56:45;;;;;;;25.73;9.80;;;;;;;-0.21;83.66;100444.31;5059253;28;20632;-70
2024/02/23 06:59:12;;;;;;;28.30;11.40;;;;;;;-0.36;84.18;100392.47;5062574;28;20759;-72
2024/02/23 07:01:51;;;;;;;27.13;10.65;;;;;;;0.04;85.18;100413.81;5066699;28;20058;-73
2024/02/23 07:04:18;;;;;;;22.40;10.32;;;;;;;0.06;84.42;100425.88;5061957;28;20043;-71
2024/02/23 07:06:44;;;;;;;21.52;10.27;;;;;;;0.03;84.61;100422.31;5063083;28;20040;-73
2024/02/23 07:09:13;;;;;;;24.95;9.75;;;;;;;-0.03;84.95;100412.69;5063145;28;20045;-71
2024/02/23 07:11:41;;;;;;;16.73;8.50;;;;;;;-0.05;83.93;100434.78;5059671;28;20419;-74
2024/02/23 07:14:14;;;;;;;16.95;6.95;;;;;;;-0.37;83.69;100381.38;5060258;28;20044;-73
2024/02/23 07:16:40;;;;;;;21.67;9.27;;;;;;;-0.26;84.28;100397.19;5057297;28;20090;-74
2024/02/23 07:19:07;;;;;;;22.67;9.77;;;;;;;-0.38;83.67;100397.53;5059748;28;20046;-73
2024/02/23 07:21:46;;;;;;;21.02;9.23;;;;;;;-0.46;84.15;100375.84;5060210;28;20118;-73
2024/02/23 07:24:12;;;;;;;18.75;8.70;;;;;;;-0.33;84.06;100392.59;5049874;28;20055;-74
2024/02/23 07:26:39;;;;;;;24.20;9.65;;;;;;;-0.19;83.94;100426.47;5062520;28;20041;-74
2024/02/23 07:29:06;;;;;;;20.75;8.35;;;;;;;-0.12;84.05;100423.41;5062954;28;20036;-72
2024/02/23 07:31:38;;;;;;;20.25;9.32;;;;;;;-0.47;84.19;100377.53;5065112;28;20044;-80
2024/02/23 07:34:04;;;;;;;20.92;8.57;;;;;;;0.02;83.75;100446.16;5073435;28;20707;-75
2024/02/23 07:36:30;;;;;;;21.77;8.85;;;;;;;-0.76;83.77;100327.63;5034658;28;20529;-77
2024/02/23 07:38:57;;;;;;;17.75;8.73;;;;;;;-0.84;83.40;100317.03;5065073;28;20048;-75
2024/02/23 07:41:26;;;;;;;24.98;9.63;;;;;;;0.06;84.36;100442.94;5051514;28;20087;-77
2024/02/23 07:43:52;;;;;;;22.05;9.90;;;;;;;0.17;84.65;100451.06;5049526;28;20048;-77
2024/02/23 07:46:26;;;;;;;;;;;;;;;0.19;83.78;100447.75;5044926;28;20641;-75
2024/02/23 07:48:55;;;;;;;19.40;8.95;;;;;;;-0.43;83.91;100387.88;5062049;28;20025;-77
2024/02/23 07:51:22;;;;;;;23.77;10.32;;;;;;;-0.42;84.08;100376.84;5064346;28;20151;-80
2024/02/23 07:53:48;;;;;;;21.48;8.90;;;;;;;0.02;83.60;100456.38;5063959;28;20053;-77
2024/02/23 08:21:28;;;;;;;21.02;9.00;;;;;;;0.59;84.21;100431.53;5055040;28;20040;-73
2024/02/23 08:23:55;;;;;;;19.55;8.25;;;;;;;0.47;84.56;100400.28;5049187;28;20048;-72
2024/02/23 08:26:22;;;;;;;18.33;8.13;;;;;;;0.69;84.24;100452.41;5020848;28;20033;-73
2024/02/23 08:28:48;;;;;;;16.98;7.88;;;;;;;0.62;83.46;100461.53;5054121;28;20028;-77
2024/02/23 08:31:14;;;;;;;18.33;8.32;;;;;;;0.26;83.40;100426.75;5051754;28;20028;-75
2024/02/23 08:33:40;;;;;;;18.70;8.23;;;;;;;0.60;83.33;100488.78;5052694;28;20032;-74
2024/02/23 08:36:07;;;;;;;18.23;8.32;;;;;;;0.59;84.02;100477.63;5055393;28;20090;-71
2024/02/23 08:38:33;;;;;;;18.25;8.25;;;;;;;0.60;83.96;100453.78;5051504;28;20068;-70
2024/02/23 08:41:03;;;;;;;14.40;8.05;;;;;;;0.75;84.49;100452.69;5051303;28;20499;-69
2024/02/23 08:43:32;;;;;;;16.63;7.57;;;;;;;0.85;83.34;100465.03;5053178;28;20065;-70
2024/02/23 08:46:01;;;;;;;16.42;7.90;;;;;;;0.67;83.69;100452.34;5055581;28;20037;-72
2024/02/23 08:48:28;;;;;;;15.48;7.65;;;;;;;0.58;82.98;100452.81;5052372;28;20036;-69
2024/02/23 08:50:57;;;;;;;16.48;7.95;;;;;;;0.63;83.03;100475.22;5056776;28;20390;-74
2024/02/23 08:53:30;;;;;;;16.58;7.93;;;;;;;0.55;83.26;100469.75;5054111;28;20059;-68
2024/02/23 08:56:00;;;;;;;16.67;8.00;;;;;;;0.58;83.68;100452.81;5051627;28;20454;-71
2024/02/23 08:58:26;;;;;;;14.40;8.05;;;;;;;0.73;83.02;100460.28;5051475;28;20037;-73
2024/02/23 09:00:52;;;;;;;12.52;7.15;;;;;;;1.02;83.57;100481.13;5050074;28;20557;-69
2024/02/23 09:03:19;;;;;;;19.55;8.35;;;;;;;1.03;83.51;100470.06;5060599;28;20070;-69
2024/02/23 09:05:50;;;;;;;15.05;7.90;;;;;;;1.02;82.96;100472.53;5054240;28;20048;-67
2024/02/23 09:08:24;;;;;;;17.05;8.00;;;;;;;1.10;83.33;100476.28;5063429;28;20156;-72
2024/02/23 09:10:53;;;;;;;15.98;7.97;;;;;;;0.83;83.71;100412.00;5040903;28;20651;-74
2024/02/23 09:13:26;;;;;;;20.80;8.75;;;;;;;1.54;83.93;100478.88;5060222;28;20033;-77
2024/02/23 09:15:58;;;;;;;20.13;8.88;;;;;;;1.17;83.34;100401.38;5057974;28;20238;-78
2024/02/23 09:18:24;;;;;;;18.80;9.02;;;;;;;1.07;82.47;100404.38;5043364;28;20033;-80
2024/02/23 09:20:53;;;;;;;17.73;9.05;;;;;;;0.94;82.87;100371.41;5027075;28;20036;-80
2024/02/23 09:23:19;;;;;;;18.27;8.25;;;;;;;1.41;83.53;100413.41;5018264;28;20055;-77
2024/02/23 09:25:46;;;;;;;14.85;7.65;;;;;;;2.03;83.48;100486.66;5028750;28;20900;-79
2024/02/23 09:28:12;;;;;;;18.83;8.75;;;;;;;1.94;83.23;100475.25;5027065;28;20032;-78
2024/02/23 09:30:41;;;;;;;16.73;8.18;;;;;;;2.07;83.36;100461.19;5026335;28;20127;-79
2024/02/23 09:33:08;;;;;;;13.52;7.22;;;;;;;2.10;82.34;100474.09;5041967;28;20032;-74
2024/02/23 09:35:37;;;;;;;17.20;8.73;;;;;;;1.76;82.53;100431.81;5043769;28;20028;-73
2024/02/23 09:38:06;;;;;;;18.52;9.10;;;;;;;1.76;83.15;100412.97;5030210;28;20067;-75
2024/02/23 09:40:56;;;;;;;18.38;8.98;;;;;;;1.57;81.78;100413.97;5059532;28;20041;-74
2024/02/23 09:43:50;;;;;;;17.52;8.43;;;;;;;2.08;82.66;100509.16;5007164;28;20542;-75
2024/02/23 09:46:20;;;;;;;15.35;7.82;;;;;;;2.07;82.56;100501.38;5019138;28;20491;-76
2024/02/23 09:48:48;;;;;;;19.02;9.35;;;;;;;1.90;81.98;100480.19;5026806;28;20041;-75
2024/02/23 09:51:18;;;;;;;20.38;9.32;;;;;;;2.14;82.89;100487.94;5024129;28;20040;-74
2024/02/23 09:53:44;;;;;;;22.90;9.05;;;;;;;2.27;82.29;100494.41;5027433;28;20093;-76
2024/02/23 09:56:17;;;;;;;21.77;8.80;;;;;;;1.80;82.94;100387.47;5040386;28;20135;-76
2024/02/23 09:58:47;;;;;;;15.85;7.88;;;;;;;2.45;81.55;100495.88;5029296;28;20122;-73
2024/02/23 10:01:22;;;;;;;19.92;9.27;;;;;;;2.35;82.69;100469.84;5053195;28;20032;-74
2024/02/23 10:03:56;;;;;;;15.45;8.13;;;;;;;2.45;82.42;100483.03;5063903;28;20128;-75
2024/02/23 10:06:22;;;;;;;17.60;8.57;;;;;;;2.30;81.67;100483.34;5030427;28;20186;-75
2024/02/23 10:08:52;;;;;;;20.80;9.07;;;;;;;2.27;82.12;100491.84;5047614;28;20064;-76
2024/02/23 10:11:19;;;;;;;20.05;9.40;;;;;;;2.30;81.94;100484.25;5048124;28;20041;-73
2024/02/23 10:13:51;;;;;;;20.50;9.05;;;;;;;2.48;82.39;100498.53;5029711;28;20510;-76
2024/02/23 10:16:25;;;;;;;19.83;9.02;;;;;;;2.23;81.64;100460.00;5011938;28;20044;-76
2024/02/23 10:18:51;;;;;;;17.90;8.77;;;;;;;2.41;81.65;100503.47;5058052;28;20036;-75
2024/02/23 10:21:17;;;;;;;18.85;8.93;;;;;;;2.37;81.28;100517.00;5046900;28;20145;-75
2024/02/23 10:23:45;;;;;;;21.02;8.65;;;;;;;2.11;81.14;100472.41;5059298;28;20036;-74
2024/02/23 10:26:11;;;;;;;20.35;9.60;;;;;;;2.19;80.72;100483.84;5040109;28;20039;-75
2024/02/23 10:28:40;;;;;;;17.25;8.60;;;;;;;2.39;81.99;100494.81;5025838;28;20041;-74
2024/02/23 10:31:10;;;;;;;21.95;9.57;;;;;;;2.21;81.56;100448.81;5044161;28;20033;-72
2024/02/23 10:33:38;;;;;;;21.15;9.73;;;;;;;2.43;81.26;100479.53;5059975;28;20167;-75
2024/02/23 10:36:05;;;;;;;18.92;9.43;;;;;;;2.53;81.32;100485.03;5034496;28;20107;-74
2024/02/23 10:38:33;;;;;;;19.75;8.48;;;;;;;2.29;80.74;100471.31;5038243;28;20072;-74
2024/02/23 10:41:05;;;;;;;20.80;9.30;;;;;;;2.35;80.72;100492.09;5039709;28;20032;-74
2024/02/23 10:43:44;;;;;;;19.63;9.60;;;;;;;2.29;81.65;100467.06;5009673;28;20456;-72
2024/02/23 10:46:13;;;;;;;20.05;9.40;;;;;;;2.62;80.52;100515.31;5056947;28;20040;-74
2024/02/23 10:48:41;;;;;;;19.02;8.57;;;;;;;2.31;80.75;100454.28;5041737;28;20041;-76
2024/02/23 10:51:09;;;;;;;21.33;8.70;;;;;;;2.65;81.45;100494.00;5014904;28;20055;-76
2024/02/23 10:53:36;;;;;;;20.02;9.07;;;;;;;2.89;81.01;100514.50;5040398;28;20045;-76
2024/02/23 10:56:05;;;;;;;17.77;9.75;;;;;;;2.68;81.01;100476.09;5058804;28;20046;-74
2024/02/23 10:58:31;;;;;;;25.90;11.32;;;;;;;2.89;80.96;100499.09;5031108;28;20048;-76
2024/02/23 11:01:06;;;;;;;25.08;10.00;;;;;;;2.77;80.38;100466.13;5023264;28;20043;-74
2024/02/23 11:03:35;;;;;;;25.15;9.95;;;;;;;2.97;80.84;100507.06;5040299;28;20218;-75
2024/02/23 11:06:02;;;;;;;20.10;9.25;;;;;;;2.90;80.16;100517.94;5058218;28;20547;-75
2024/02/23 11:08:39;;;;;;;23.88;9.63;;;;;;;2.47;79.61;100500.22;5041372;28;20025;-76
2024/02/23 11:11:09;;;;;;;22.00;9.77;;;;;;;2.47;80.21;100537.91;5044661;28;20446;-76
2024/02/23 11:13:37;;;;;;;22.30;9.77;;;;;;;2.48;80.75;100503.69;5028519;28;20028;-76
2024/02/23 11:16:11;;;;;;;25.00;10.80;;;;;;;2.59;80.29;100525.47;5037590;28;20271;-74
2024/02/23 11:18:40;;;;;;;21.90;9.77;;;;;;;2.66;80.07;100547.13;5057832;28;20036;-72
2024/02/23 11:21:09;;;;;;;22.38;9.48;;;;;;;2.73;80.33;100540.53;5032376;28;20032;-72
2024/02/23 12:38:45;;;;;;;31.65;11.45;;;;;;;2.59;78.85;100537.47;5054959;28;20048;-67
2024/02/23 12:41:11;;;;;;;32.10;12.85;;;;;;;2.70;79.14;100555.03;5037302;28;20041;-68
2024/02/23 12:43:41;;;;;;;35.22;12.48;;;;;;;2.75;79.13;100557.75;5007193;28;20044;-66
2024/02/23 12:46:11;;;;;;;31.98;12.30;;;;;;;2.52;78.14;100557.81;5025621;28;20087;-67
2024/02/23 12:48:38;;;;;;;30.98;11.70;;;;;;;2.64;79.15;100565.06;5019710;28;20509;-73
2024/02/23 12:51:04;;;;;;;28.77;11.45;;;;;;;2.64;78.13;100577.94;5052778;28;21081;-66
2024/02/23 12:53:38;;;;;;;36.67;12.10;;;;;;;2.55;78.25;100593.00;5056009;28;20033;-64
2024/02/23 12:56:09;;;;;;;34.15;12.70;;;;;;;2.51;78.64;100578.31;5039980;28;21159;-66
2024/02/23 13:17:05;;;;;;;39.00;15.18;;;;;;;2.08;77.81;100564.75;5050225;28;20092;-68
2024/02/23 13:24:11;;;;;;;34.35;12.50;;;;;;;2.01;77.71;100552.47;5071982;28;20133;-68
2024/02/23 13:45:17;;;;;;;38.58;14.32;;;;;;;2.22;78.26;100594.38;5054009;28;20039;-70
2024/02/23 13:52:41;;;;;;;41.92;13.27;;;;;;;2.19;78.29;100594.28;5063999;28;20321;-70